Time;durP1;ratioP1;P1;durP2;ratioP2;P2;SDS_P1;SDS_P2;PMS_P1;PMS_P2;Temp;Humidity;BMP_temperature;BMP_pressure;BME280_temperature;BME280_humidity;BME280_pressure;Samples;Min_cycle;Max_cycle;Signal;HPM_P1;HPM_P2
2022/10/01 00:00:21;;;;;;;16.65;4.68;;;20.50;98.30;;;;;;4974277;28;20039;-65
2022/10/01 00:02:47;;;;;;;11.48;4.40;;;20.50;98.30;;;;;;4956868;28;20031;-64
2022/10/01 00:05:13;;;;;;;14.43;5.03;;;20.50;98.40;;;;;;4977178;28;20137;-64
2022/10/01 00:07:43;;;;;;;14.07;4.68;;;20.50;98.60;;;;;;5013690;28;20100;-65
2022/10/01 00:10:12;;;;;;;15.32;5.00;;;20.50;98.60;;;;;;5013538;28;20037;-64
2022/10/01 00:12:43;;;;;;;12.75;4.63;;;20.40;98.70;;;;;;5013474;28;20128;-66
2022/10/01 00:15:10;;;;;;;13.48;4.90;;;20.40;98.80;;;;;;5013354;28;20038;-65
2022/10/01 00:17:36;;;;;;;15.25;4.60;;;20.40;98.90;;;;;;5013627;28;20030;-67
2022/10/01 00:20:03;;;;;;;17.95;4.85;;;20.40;98.90;;;;;;4996013;28;20030;-66
2022/10/01 00:22:33;;;;;;;14.07;4.47;;;20.40;98.90;;;;;;5013454;28;20042;-70
2022/10/01 00:24:59;;;;;;;12.98;4.18;;;20.40;99.00;;;;;;5013391;28;20029;-71
2022/10/01 00:27:26;;;;;;;15.52;4.70;;;20.40;99.10;;;;;;4995613;28;20061;-71
2022/10/01 00:29:52;;;;;;;15.50;4.50;;;20.50;99.10;;;;;;5013213;28;20025;-68
2022/10/01 00:32:22;;;;;;;15.73;4.38;;;20.50;99.10;;;;;;5013257;28;20034;-68
2022/10/01 00:34:47;;;;;;;17.77;3.95;;;20.50;99.10;;;;;;5012356;28;20045;-64
2022/10/01 00:37:14;;;;;;;14.73;4.32;;;20.50;99.10;;;;;;5013061;28;20487;-64
2022/10/01 00:39:39;;;;;;;14.02;4.43;;;20.50;99.20;;;;;;5012971;28;20022;-66
2022/10/01 00:42:29;;;;;;;16.75;4.40;;;20.50;99.20;;;;;;5012938;28;20045;-67
2022/10/01 00:44:55;;;;;;;16.33;4.10;;;20.50;99.20;;;;;;5013278;28;20022;-64
2022/10/01 00:47:43;;;;;;;18.85;4.55;;;20.50;99.20;;;;;;5018738;28;20044;-65
2022/10/01 00:50:25;;;;;;;13.70;4.75;;;20.50;99.40;;;;;;5019495;28;20026;-64
2022/10/01 00:52:59;;;;;;;13.55;3.90;;;20.50;99.30;;;;;;5019684;28;20041;-63
2022/10/01 00:55:26;;;;;;;13.40;3.83;;;20.50;99.30;;;;;;5001404;28;20030;-66
2022/10/01 00:57:53;;;;;;;18.20;4.22;;;20.50;99.20;;;;;;5019646;28;20442;-64
2022/10/01 01:00:21;;;;;;;16.42;4.55;;;20.50;99.20;;;;;;5019573;28;20032;-64
2022/10/01 01:02:46;;;;;;;17.02;4.10;;;20.60;99.30;;;;;;5019353;28;20117;-64
2022/10/01 01:05:12;;;;;;;18.08;4.40;;;20.60;99.30;;;;;;5020024;28;20077;-64
2022/10/01 01:07:44;;;;;;;14.02;4.30;;;20.60;99.30;;;;;;5019395;28;20064;-64
2022/10/01 01:10:15;;;;;;;14.43;4.22;;;20.60;99.30;;;;;;5019620;28;20036;-64
2022/10/01 01:13:18;;;;;;;20.98;4.28;;;20.60;99.40;;;;;;5019656;28;20092;-65
2022/10/01 01:15:56;;;;;;;18.23;4.47;;;20.60;99.40;;;;;;5019228;28;20452;-65
2022/10/01 01:18:33;;;;;;;17.02;4.45;;;20.70;99.40;;;;;;5019391;28;20037;-65
2022/10/01 01:21:19;;;;;;;16.73;4.32;;;20.70;99.40;;;;;;5019534;28;20030;-65
2022/10/01 01:23:45;;;;;;;20.25;4.30;;;20.70;99.50;;;;;;5019387;28;20034;-64
2022/10/01 01:26:23;;;;;;;16.45;4.40;;;20.70;99.40;;;;;;5019161;28;20022;-64
2022/10/01 01:29:01;;;;;;;19.05;3.60;;;20.60;99.50;;;;;;5019285;28;20196;-66
2022/10/01 01:31:32;;;;;;;15.57;4.65;;;20.60;99.50;;;;;;5019076;28;20022;-65
2022/10/01 01:34:01;;;;;;;17.05;4.78;;;20.60;99.60;;;;;;5019381;28;20097;-65
2022/10/01 01:36:32;;;;;;;13.95;4.13;;;20.50;99.60;;;;;;5019550;28;20040;-65
2022/10/01 01:39:07;;;;;;;17.13;4.05;;;20.50;99.70;;;;;;5019179;28;20022;-66
2022/10/01 01:41:36;;;;;;;17.15;4.13;;;20.50;99.80;;;;;;5019247;28;20033;-67
2022/10/01 01:44:05;;;;;;;18.00;3.70;;;20.50;99.90;;;;;;5018478;28;20042;-65
2022/10/01 01:46:35;;;;;;;13.27;4.35;;;20.50;99.90;;;;;;5019191;28;20037;-65
2022/10/01 01:49:03;;;;;;;16.17;4.25;;;20.50;99.90;;;;;;5019226;28;20026;-65
2022/10/01 01:51:35;;;;;;;16.45;3.63;;;20.50;99.90;;;;;;5019093;28;20029;-64
2022/10/01 01:54:01;;;;;;;11.95;3.60;;;20.50;99.90;;;;;;5019119;28;20026;-64
2022/10/01 01:56:29;;;;;;;10.57;3.45;;;20.50;99.90;;;;;;5019187;28;20026;-64
2022/10/01 01:58:57;;;;;;;13.50;3.60;;;20.50;99.90;;;;;;5015289;28;20030;-65
2022/10/01 02:01:40;;;;;;;13.68;3.58;;;20.50;99.90;;;;;;5015953;28;20017;-64
2022/10/01 02:04:15;;;;;;;18.52;3.33;;;20.50;99.90;;;;;;5016084;28;20030;-64
2022/10/01 02:06:52;;;;;;;14.43;3.60;;;20.40;99.90;;;;;;5015724;28;20033;-64
2022/10/01 02:09:35;;;;;;;17.02;4.40;;;20.40;99.90;;;;;;5015651;28;20054;-64
2022/10/01 02:12:19;;;;;;;13.18;3.20;;;20.40;99.90;;;;;;5015737;28;20030;-64
2022/10/01 02:15:10;;;;;;;14.20;3.40;;;20.40;99.90;;;;;;5015623;28;20443;-72
2022/10/01 02:18:03;;;;;;;16.60;3.13;;;20.40;99.90;;;;;;5015776;28;20029;-65
2022/10/01 02:20:38;;;;;;;10.90;2.88;;;20.30;99.90;;;;;;5015380;28;20034;-64
2022/10/01 02:23:11;;;;;;;12.50;3.00;;;20.30;99.90;;;;;;5015370;28;20083;-63
2022/10/01 02:25:42;;;;;;;10.13;2.70;;;20.30;99.90;;;;;;5015363;28;20025;-65
2022/10/01 02:28:12;;;;;;;9.52;3.05;;;20.30;99.90;;;;;;5015473;28;20067;-65
2022/10/01 02:30:41;;;;;;;12.98;2.72;;;20.30;99.90;;;;;;5015337;28;20025;-63
2022/10/01 02:33:10;;;;;;;14.48;2.80;;;20.30;99.90;;;;;;5015422;28;20133;-64
2022/10/01 02:35:37;;;;;;;13.10;2.95;;;20.30;99.90;;;;;;5015147;28;20029;-64
2022/10/01 02:38:06;;;;;;;11.93;2.83;;;20.30;99.90;;;;;;5015389;28;20037;-64
2022/10/01 02:40:34;;;;;;;12.02;2.85;;;20.30;99.90;;;;;;5015392;28;20093;-64
2022/10/01 02:43:08;;;;;;;15.10;3.13;;;20.30;99.90;;;;;;5015179;28;20554;-65
2022/10/01 02:45:36;;;;;;;13.43;2.65;;;20.30;99.90;;;;;;5015128;28;20040;-72
2022/10/01 02:48:16;;;;;;;11.25;2.58;;;20.30;99.90;;;;;;5015019;28;20024;-64
2022/10/01 02:50:52;;;;;;;9.77;2.22;;;20.40;99.90;;;;;;5014878;28;20025;-63
2022/10/01 02:53:33;;;;;;;11.70;2.40;;;20.40;99.70;;;;;;5015410;28;20044;-64
2022/10/01 02:56:02;;;;;;;15.57;3.17;;;20.40;99.60;;;;;;5014783;28;20033;-64
2022/10/01 02:58:28;;;;;;;11.95;2.65;;;20.40;99.50;;;;;;5015008;28;20018;-64
2022/10/01 03:00:54;;;;;;;12.15;2.88;;;20.40;99.50;;;;;;5014882;28;20084;-65
2022/10/01 03:03:20;;;;;;;11.73;2.53;;;20.40;99.40;;;;;;5014555;28;20034;-66
2022/10/01 03:05:45;;;;;;;12.00;2.40;;;20.40;99.40;;;;;;5014693;28;20034;-64
2022/10/01 03:08:12;;;;;;;9.68;2.70;;;20.40;99.50;;;;;;5014637;28;20069;-64
2022/10/01 03:10:38;;;;;;;11.95;2.75;;;20.40;99.50;;;;;;5014524;28;20030;-65
2022/10/01 03:13:05;;;;;;;11.18;2.42;;;20.40;99.40;;;;;;5015194;28;20032;-65
2022/10/01 03:15:31;;;;;;;12.55;2.10;;;20.40;99.30;;;;;;5014404;28;20076;-65
2022/10/01 03:17:57;;;;;;;10.40;2.10;;;20.40;99.20;;;;;;5014567;28;20026;-64
2022/10/01 03:20:23;;;;;;;9.77;2.40;;;20.50;99.10;;;;;;5014467;28;20026;-63
2022/10/01 03:22:49;;;;;;;13.27;2.40;;;20.40;99.00;;;;;;5014424;28;20041;-66
2022/10/01 03:25:16;;;;;;;8.18;2.20;;;20.40;98.90;;;;;;5014400;28;20026;-64
2022/10/01 03:27:42;;;;;;;9.25;2.42;;;20.50;98.90;;;;;;5014350;28;20052;-64
2022/10/01 03:30:10;;;;;;;9.73;2.28;;;20.40;98.80;;;;;;4996707;28;20050;-64
2022/10/01 03:32:36;;;;;;;13.63;2.63;;;20.40;98.90;;;;;;5014256;28;20029;-64
2022/10/01 03:35:02;;;;;;;11.73;2.55;;;20.40;99.00;;;;;;5014156;28;20112;-66
2022/10/01 03:37:27;;;;;;;14.65;2.63;;;20.40;99.00;;;;;;5013984;28;20029;-65
2022/10/01 03:39:53;;;;;;;11.70;2.60;;;20.30;99.00;;;;;;5014099;28;20471;-64
2022/10/01 03:42:19;;;;;;;10.70;2.95;;;20.30;99.00;;;;;;5014142;28;20368;-64
2022/10/01 03:44:44;;;;;;;8.48;2.53;;;20.30;99.10;;;;;;5014215;28;20022;-66
2022/10/01 03:47:10;;;;;;;9.20;2.53;;;20.30;99.20;;;;;;5014161;28;20026;-66
2022/10/01 03:49:36;;;;;;;11.50;2.60;;;20.30;99.20;;;;;;5014336;28;20022;-65
2022/10/01 03:52:04;;;;;;;9.55;2.35;;;20.30;99.20;;;;;;5014503;28;20509;-64
2022/10/01 03:54:30;;;;;;;9.68;2.30;;;20.30;99.30;;;;;;5013890;28;20034;-66
2022/10/01 03:56:56;;;;;;;11.50;3.00;;;20.30;99.30;;;;;;5014290;28;20037;-66
2022/10/01 03:59:22;;;;;;;12.38;2.33;;;20.30;99.40;;;;;;5014335;28;20096;-67
2022/10/01 04:01:48;;;;;;;8.50;2.10;;;20.20;99.40;;;;;;5013658;28;20117;-66
2022/10/01 04:04:14;;;;;;;10.25;2.35;;;20.20;99.50;;;;;;5013554;28;20037;-64
2022/10/01 04:06:40;;;;;;;9.80;2.45;;;20.20;99.50;;;;;;5013757;28;20014;-65
2022/10/01 04:09:08;;;;;;;11.90;2.67;;;20.20;99.50;;;;;;5004628;28;20050;-64
2022/10/01 04:11:34;;;;;;;11.23;2.40;;;20.20;99.50;;;;;;5013808;28;20084;-64
2022/10/01 04:14:00;;;;;;;13.63;3.83;;;20.20;99.60;;;;;;5013726;28;20034;-65
2022/10/01 04:16:26;;;;;;;10.70;2.80;;;20.20;99.60;;;;;;5013621;28;20537;-63
2022/10/01 04:18:52;;;;;;;11.73;2.72;;;20.20;99.50;;;;;;5013439;28;20026;-64
2022/10/01 04:21:18;;;;;;;12.65;2.20;;;20.20;99.60;;;;;;5012996;28;20057;-67
2022/10/01 04:23:44;;;;;;;9.57;2.20;;;20.20;99.60;;;;;;5013729;28;20033;-69
2022/10/01 04:26:09;;;;;;;12.93;2.80;;;20.20;99.60;;;;;;5013242;28;20483;-64
2022/10/01 04:28:35;;;;;;;13.00;2.55;;;20.10;99.60;;;;;;5013576;28;20115;-68
2022/10/01 04:33:45;;;;;;;7.63;1.92;;;20.10;99.50;;;;;;5013368;28;20061;-67
2022/10/01 04:36:12;;;;;;;13.60;2.22;;;20.10;99.40;;;;;;5013150;28;20472;-68
2022/10/01 04:38:38;;;;;;;12.80;2.80;;;20.10;99.20;;;;;;5013225;28;20030;-65
2022/10/01 04:41:03;;;;;;;11.10;2.55;;;20.10;99.10;;;;;;5013508;28;20044;-67
2022/10/01 04:43:29;;;;;;;11.27;2.42;;;20.10;99.10;;;;;;5013192;28;20048;-66
2022/10/01 04:45:55;;;;;;;9.98;2.10;;;20.10;99.00;;;;;;5012773;28;20024;-65
2022/10/01 04:48:20;;;;;;;13.52;1.90;;;20.10;99.00;;;;;;5012881;28;20042;-65
2022/10/01 04:50:46;;;;;;;9.20;1.73;;;20.10;99.00;;;;;;5013080;28;20023;-65
2022/10/01 04:53:12;;;;;;;12.23;2.00;;;20.10;98.90;;;;;;5013298;28;20030;-67
2022/10/01 04:55:38;;;;;;;10.93;2.30;;;20.10;98.80;;;;;;5012908;28;20105;-65
2022/10/01 04:58:04;;;;;;;12.77;2.88;;;20.10;98.80;;;;;;5013154;28;20025;-65
2022/10/01 05:00:30;;;;;;;11.30;2.80;;;20.10;98.90;;;;;;5013001;28;20467;-64
2022/10/01 05:02:55;;;;;;;11.68;2.83;;;20.00;98.90;;;;;;5013089;28;20037;-64
2022/10/01 05:05:23;;;;;;;12.18;2.42;;;20.00;98.90;;;;;;5012766;28;20447;-65
2022/10/01 05:07:49;;;;;;;7.80;2.33;;;20.00;99.10;;;;;;5012667;28;20430;-65
2022/10/01 05:10:20;;;;;;;6.50;2.00;;;20.00;99.00;;;;;;5013052;28;20098;-67
2022/10/01 05:12:48;;;;;;;8.35;2.60;;;20.00;99.00;;;;;;5012880;28;20057;-64
2022/10/01 05:15:15;;;;;;;8.85;2.38;;;20.00;99.10;;;;;;5012725;28;20022;-65
2022/10/01 05:17:42;;;;;;;9.20;2.40;;;20.00;99.00;;;;;;5012853;28;20026;-67
2022/10/01 05:20:17;;;;;;;9.63;2.38;;;20.00;99.20;;;;;;5012904;28;20025;-65
2022/10/01 05:22:44;;;;;;;13.48;2.70;;;20.00;99.10;;;;;;5012799;28;20072;-64
2022/10/01 05:25:10;;;;;;;9.23;2.40;;;20.00;99.00;;;;;;5012840;28;20486;-69
2022/10/01 05:27:37;;;;;;;10.25;2.42;;;20.00;99.10;;;;;;5012517;28;20061;-71
2022/10/01 05:30:09;;;;;;;10.20;2.70;;;20.00;99.00;;;;;;5012795;28;20030;-67
2022/10/01 05:32:41;;;;;;;9.50;2.13;;;20.00;98.90;;;;;;5013067;28;20030;-70
2022/10/01 05:35:08;;;;;;;9.77;2.50;;;20.00;98.80;;;;;;5016319;28;20029;-74
2022/10/01 05:37:34;;;;;;;11.05;2.22;;;20.00;98.80;;;;;;5016365;28;20025;-70
2022/10/01 05:40:00;;;;;;;13.85;2.40;;;20.00;98.80;;;;;;5016217;28;20032;-69
2022/10/01 05:42:26;;;;;;;13.20;2.78;;;20.10;98.80;;;;;;5016200;28;20025;-74
2022/10/01 05:44:52;;;;;;;12.45;2.58;;;20.10;98.80;;;;;;4998755;28;20367;-69
2022/10/01 05:47:19;;;;;;;11.35;2.50;;;20.10;98.80;;;;;;5016108;28;20446;-66
2022/10/01 05:49:45;;;;;;;10.68;2.40;;;20.10;98.70;;;;;;5016150;28;20021;-69
2022/10/01 05:52:14;;;;;;;12.00;2.53;;;20.20;98.70;;;;;;4998493;28;20125;-72
2022/10/01 05:54:40;;;;;;;10.93;2.30;;;20.20;98.70;;;;;;5015717;28;20095;-72
2022/10/01 05:57:06;;;;;;;13.85;2.35;;;20.20;98.50;;;;;;5015740;28;20062;-70
2022/10/01 05:59:34;;;;;;;10.15;2.55;;;20.30;98.50;;;;;;4998328;28;20034;-64
2022/10/01 06:02:00;;;;;;;9.88;2.28;;;20.30;98.50;;;;;;5015958;28;20490;-70
2022/10/01 06:04:26;;;;;;;14.48;2.67;;;20.30;98.50;;;;;;5015796;28;20022;-72
2022/10/01 06:06:53;;;;;;;13.52;2.70;;;20.30;98.40;;;;;;5015687;28;20032;-72
2022/10/01 06:09:19;;;;;;;11.70;2.95;;;20.40;98.40;;;;;;5007743;28;20069;-74
2022/10/01 06:11:47;;;;;;;17.70;3.60;;;20.40;98.40;;;;;;5015811;28;20026;-69
2022/10/01 06:14:13;;;;;;;11.57;3.75;;;20.40;98.30;;;;;;5015702;28;20080;-75
2022/10/01 06:16:40;;;;;;;13.98;3.78;;;20.50;98.30;;;;;;5015811;28;20033;-69
2022/10/01 06:19:06;;;;;;;16.05;3.78;;;20.50;98.30;;;;;;5015773;28;20103;-68
2022/10/01 06:21:34;;;;;;;15.18;2.90;;;20.50;98.30;;;;;;5015729;28;20026;-75
2022/10/01 06:24:00;;;;;;;15.07;3.40;;;20.50;98.30;;;;;;5015402;28;20117;-66
2022/10/01 06:26:26;;;;;;;11.57;3.05;;;20.50;98.30;;;;;;5015431;28;20097;-66
2022/10/01 06:28:51;;;;;;;11.82;3.38;;;20.50;98.30;;;;;;5013996;28;20033;-70
2022/10/01 06:31:18;;;;;;;14.95;3.42;;;20.50;98.30;;;;;;5015847;28;20022;-65
2022/10/01 06:33:44;;;;;;;10.10;3.03;;;20.50;98.30;;;;;;5015414;28;20025;-70
2022/10/01 06:36:10;;;;;;;14.20;3.20;;;20.50;98.40;;;;;;5015326;28;20400;-68
2022/10/01 06:38:35;;;;;;;12.52;3.10;;;20.60;98.30;;;;;;5015751;28;20021;-66
2022/10/01 06:41:03;;;;;;;12.25;3.03;;;20.60;98.30;;;;;;5014883;28;20053;-66
2022/10/01 06:43:30;;;;;;;12.35;2.63;;;20.70;98.20;;;;;;5014725;28;20061;-69
2022/10/01 06:45:56;;;;;;;14.07;2.97;;;20.70;98.20;;;;;;5013580;28;20050;-65
2022/10/01 06:48:22;;;;;;;14.25;2.95;;;20.70;98.20;;;;;;5014950;28;20053;-69
2022/10/01 06:50:49;;;;;;;12.73;2.97;;;20.70;98.20;;;;;;5015636;28;20419;-68
2022/10/01 06:53:16;;;;;;;11.10;3.35;;;20.70;98.10;;;;;;5014845;28;20028;-74
2022/10/01 06:55:42;;;;;;;12.82;3.55;;;20.90;98.10;;;;;;5014599;28;20097;-75
2022/10/01 06:58:16;;;;;;;14.95;3.60;;;21.00;98.00;;;;;;5014762;28;20049;-69
2022/10/01 07:00:43;;;;;;;13.68;3.47;;;21.00;97.80;;;;;;5009138;28;20038;-69
2022/10/01 07:03:18;;;;;;;13.88;3.55;;;21.10;97.70;;;;;;4995435;28;20034;-67
2022/10/01 07:05:46;;;;;;;11.25;3.10;;;21.20;97.70;;;;;;4993723;28;20021;-68
2022/10/01 07:08:12;;;;;;;12.70;2.83;;;21.30;97.40;;;;;;4995066;28;20051;-70
2022/10/01 07:10:38;;;;;;;12.32;2.60;;;21.40;97.20;;;;;;4994976;28;20045;-71
2022/10/01 07:13:12;;;;;;;10.10;2.47;;;21.50;96.90;;;;;;4994929;28;20034;-72
2022/10/01 07:15:38;;;;;;;8.52;2.40;;;21.60;96.70;;;;;;4994786;28;20015;-72
2022/10/01 07:18:09;;;;;;;10.68;2.67;;;21.60;96.60;;;;;;4977609;28;20034;-68
2022/10/01 07:20:38;;;;;;;14.30;2.65;;;21.70;96.60;;;;;;4977445;28;20026;-77
2022/10/01 07:23:05;;;;;;;8.88;2.42;;;21.70;96.40;;;;;;4994721;28;20045;-68
2022/10/01 07:25:31;;;;;;;10.00;2.70;;;21.90;96.30;;;;;;4977088;28;20105;-71
2022/10/01 07:28:00;;;;;;;16.10;2.38;;;21.90;96.10;;;;;;4976971;28;20156;-68
2022/10/01 07:30:26;;;;;;;10.75;2.10;;;22.00;95.80;;;;;;4994195;28;20046;-71
2022/10/01 07:32:53;;;;;;;13.23;2.38;;;22.10;95.60;;;;;;4994513;28;20093;-66
2022/10/01 07:35:19;;;;;;;12.00;2.55;;;22.10;95.40;;;;;;4994587;28;20018;-65
2022/10/01 07:37:46;;;;;;;6.40;2.03;;;22.20;95.20;;;;;;4994384;28;20026;-68
2022/10/01 07:40:12;;;;;;;12.30;2.20;;;22.20;94.90;;;;;;4994199;28;20025;-69
2022/10/01 07:42:37;;;;;;;6.22;2.30;;;22.20;94.90;;;;;;4994033;28;20038;-67
2022/10/01 07:45:05;;;;;;;9.82;1.77;;;22.20;94.80;;;;;;4994067;28;20102;-68
2022/10/01 07:47:31;;;;;;;11.68;2.05;;;22.20;95.10;;;;;;4993917;28;20053;-66
2022/10/01 07:49:57;;;;;;;9.90;2.13;;;22.20;94.80;;;;;;4994089;28;20514;-67
2022/10/01 07:52:23;;;;;;;12.77;2.22;;;22.10;94.50;;;;;;4994109;28;20137;-65
2022/10/01 07:54:48;;;;;;;13.43;1.80;;;22.00;94.30;;;;;;4993784;28;20033;-67
2022/10/01 07:57:14;;;;;;;8.18;1.83;;;21.90;94.30;;;;;;4993830;28;20044;-70
2022/10/01 07:59:40;;;;;;;10.88;2.50;;;21.90;94.00;;;;;;4993920;28;20543;-67
2022/10/01 08:02:16;;;;;;;10.27;2.40;;;21.90;93.50;;;;;;4994498;28;20365;-66
2022/10/01 08:07:26;;;;;;;7.78;2.10;;;21.70;92.80;;;;;;4994179;28;20460;-66
2022/10/01 08:09:52;;;;;;;11.23;2.38;;;21.60;92.40;;;;;;4992799;28;20074;-64
2022/10/01 08:12:18;;;;;;;11.70;2.35;;;21.60;92.20;;;;;;4983203;28;20034;-68
2022/10/01 08:14:45;;;;;;;12.65;2.20;;;21.70;91.90;;;;;;4988812;28;20472;-66
2022/10/01 08:17:14;;;;;;;8.23;1.50;;;21.70;91.40;;;;;;4975905;28;20046;-70
2022/10/01 08:19:39;;;;;;;9.77;1.70;;;21.70;90.90;;;;;;4985592;28;20045;-67
2022/10/01 08:22:06;;;;;;;13.60;3.58;;;21.60;90.40;;;;;;4987883;28;20473;-69
2022/10/01 08:24:33;;;;;;;12.93;2.10;;;21.60;90.40;;;;;;4992682;28;20476;-70
2022/10/01 08:26:59;;;;;;;13.15;2.60;;;21.60;90.10;;;;;;4976244;28;20025;-71
2022/10/01 08:29:25;;;;;;;4.15;1.38;;;21.60;89.80;;;;;;4993409;28;20061;-73
2022/10/01 08:31:52;;;;;;;7.95;2.00;;;21.60;89.10;;;;;;4993466;28;20065;-74
2022/10/01 08:34:18;;;;;;;10.30;2.13;;;21.60;88.50;;;;;;4989578;28;20026;-64
2022/10/01 08:36:44;;;;;;;8.55;1.88;;;21.70;88.20;;;;;;4984842;28;20080;-73
2022/10/01 08:39:12;;;;;;;11.15;1.98;;;21.70;87.60;;;;;;4989082;28;20125;-75
2022/10/01 08:42:02;;;;;;;9.55;2.70;;;21.80;86.50;;;;;;4982623;28;20031;-73
2022/10/01 08:44:36;;;;;;;9.88;1.90;;;21.90;87.50;;;;;;4981598;28;20077;-70
2022/10/01 08:47:10;;;;;;;8.55;1.67;;;21.90;86.10;;;;;;4982848;28;20687;-78
2022/10/01 08:49:41;;;;;;;14.98;1.98;;;22.00;85.40;;;;;;4987992;28;20030;-74
2022/10/01 08:52:25;;;;;;;8.27;1.70;;;22.00;84.80;;;;;;4983494;28;20101;-75
2022/10/01 08:55:09;;;;;;;9.07;1.90;;;22.00;85.00;;;;;;4987844;28;20220;-71
2022/10/01 08:57:48;;;;;;;8.50;1.70;;;22.00;82.70;;;;;;4985307;28;20267;-74
2022/10/01 09:00:17;;;;;;;9.63;1.83;;;22.10;82.60;;;;;;4988806;28;20015;-70
2022/10/01 09:02:45;;;;;;;4.47;1.05;;;22.10;81.60;;;;;;4981336;28;20134;-70
2022/10/01 09:05:44;;;;;;;7.47;1.50;;;22.20;80.90;;;;;;4985876;28;20369;-68
2022/10/01 09:08:43;;;;;;;6.82;1.67;;;22.30;80.90;;;;;;4983675;28;20074;-69
2022/10/01 09:11:27;;;;;;;6.32;1.52;;;22.50;79.90;;;;;;4993122;28;20069;-67
2022/10/01 09:14:27;;;;;;;9.48;1.80;;;22.60;79.50;;;;;;4989951;28;20369;-68
2022/10/01 09:17:31;;;;;;;7.13;1.77;;;22.80;78.60;;;;;;4983515;28;20030;-68
2022/10/01 09:20:17;;;;;;;7.88;1.63;;;22.90;77.20;;;;;;4996790;28;20023;-69
2022/10/01 09:22:53;;;;;;;5.75;1.40;;;23.00;76.30;;;;;;4996889;28;20046;-68
2022/10/01 09:25:23;;;;;;;16.25;1.70;;;23.10;74.60;;;;;;4996575;28;20023;-69
2022/10/01 09:27:51;;;;;;;12.95;1.90;;;23.10;74.20;;;;;;4986547;28;20369;-68
2022/10/01 09:30:23;;;;;;;11.38;1.92;;;23.20;73.20;;;;;;4982248;28;20023;-70
2022/10/01 09:33:16;;;;;;;7.43;1.60;;;23.30;72.90;;;;;;4977037;28;20111;-69
2022/10/01 09:36:00;;;;;;;5.90;1.60;;;23.20;70.30;;;;;;4972332;28;20089;-75
2022/10/01 09:38:38;;;;;;;10.60;1.83;;;23.10;71.80;;;;;;4989484;28;20038;-68
2022/10/01 09:41:05;;;;;;;10.55;2.60;;;23.10;71.30;;;;;;4995826;28;20072;-70
2022/10/01 09:43:40;;;;;;;11.70;2.28;;;23.00;70.50;;;;;;4995613;28;20046;-68
2022/10/01 09:46:12;;;;;;;8.77;1.85;;;22.90;71.10;;;;;;4996023;28;20109;-67
2022/10/01 09:48:45;;;;;;;12.65;2.20;;;23.00;70.70;;;;;;4996089;28;20034;-66
2022/10/01 09:51:16;;;;;;;6.47;1.80;;;23.00;70.70;;;;;;4996191;28;20503;-71
2022/10/01 09:53:54;;;;;;;11.00;2.20;;;23.10;70.30;;;;;;4995804;28;20041;-69
2022/10/01 09:56:41;;;;;;;7.38;1.45;;;23.20;69.50;;;;;;4995916;28;20031;-69
2022/10/01 09:59:14;;;;;;;8.32;1.85;;;23.20;68.80;;;;;;4995723;28;20088;-71
2022/10/01 10:01:39;;;;;;;12.60;2.28;;;23.20;69.60;;;;;;4996163;28;20030;-70
2022/10/01 10:04:05;;;;;;;8.77;2.60;;;23.20;69.30;;;;;;4996108;28;20026;-71
2022/10/01 10:06:31;;;;;;;10.23;1.85;;;23.20;68.40;;;;;;4995920;28;20026;-70
2022/10/01 10:09:00;;;;;;;10.07;2.13;;;23.30;67.80;;;;;;4995670;28;20050;-73
2022/10/01 10:11:30;;;;;;;8.80;1.83;;;23.50;67.70;;;;;;4995570;28;20041;-71
2022/10/01 10:14:02;;;;;;;9.60;1.67;;;23.60;67.10;;;;;;4989637;28;20027;-72
2022/10/01 10:16:34;;;;;;;9.30;1.67;;;23.80;66.40;;;;;;4986460;28;20456;-71
2022/10/01 10:19:01;;;;;;;7.88;1.55;;;24.00;65.20;;;;;;4994051;28;20018;-71
2022/10/01 10:21:33;;;;;;;11.82;1.55;;;24.10;64.50;;;;;;4977314;28;20050;-74
2022/10/01 10:24:02;;;;;;;10.53;1.70;;;24.10;63.20;;;;;;4975685;28;20050;-74
2022/10/01 10:26:38;;;;;;;5.72;1.88;;;24.10;62.60;;;;;;4976082;28;20098;-71
2022/10/01 10:29:07;;;;;;;13.20;2.40;;;24.20;62.30;;;;;;4975769;28;20480;-74
2022/10/01 10:31:44;;;;;;;4.63;1.30;;;24.10;62.00;;;;;;4975850;28;20384;-75
2022/10/01 10:34:12;;;;;;;5.70;1.30;;;24.10;60.80;;;;;;4979098;28;20062;-76
2022/10/01 10:36:40;;;;;;;9.32;1.60;;;24.00;60.00;;;;;;4994734;28;20436;-78
2022/10/01 10:39:20;;;;;;;13.45;2.55;;;24.00;60.00;;;;;;4995584;28;20027;-74
2022/10/01 10:41:47;;;;;;;8.18;1.92;;;23.90;59.10;;;;;;4995282;28;20531;-69
2022/10/01 10:44:18;;;;;;;7.97;1.60;;;23.80;59.60;;;;;;4977684;28;20030;-74
2022/10/01 10:46:44;;;;;;;6.10;1.33;;;23.80;59.10;;;;;;4993156;28;20038;-71
2022/10/01 10:49:22;;;;;;;9.63;1.90;;;23.70;59.10;;;;;;4994364;28;20439;-72
2022/10/01 10:51:52;;;;;;;9.02;1.77;;;23.60;59.20;;;;;;4993667;28;20066;-71
2022/10/01 10:54:31;;;;;;;6.78;1.60;;;23.70;60.00;;;;;;4995047;28;20032;-72
2022/10/01 10:57:15;;;;;;;8.48;1.80;;;23.80;59.90;;;;;;4995766;28;20030;-73
2022/10/01 10:59:40;;;;;;;6.90;1.90;;;23.80;59.50;;;;;;4969852;28;20025;-73
2022/10/01 11:02:15;;;;;;;8.57;1.52;;;23.80;60.50;;;;;;4975694;28;20034;-70
2022/10/01 11:04:44;;;;;;;10.13;2.03;;;23.90;60.10;;;;;;4962717;28;20034;-72
2022/10/01 11:07:12;;;;;;;7.68;1.60;;;24.10;60.20;;;;;;4988451;28;20022;-68
2022/10/01 11:09:53;;;;;;;7.32;1.80;;;24.20;60.60;;;;;;4994779;28;20054;-77
2022/10/01 11:12:55;;;;;;;9.82;1.70;;;24.40;59.80;;;;;;4994919;28;20034;-74
2022/10/01 11:15:52;;;;;;;10.25;2.58;;;24.50;59.50;;;;;;4994579;28;20030;-69
2022/10/01 11:18:29;;;;;;;11.35;2.63;;;24.60;59.80;;;;;;4977217;28;20389;-71
2022/10/01 11:21:13;;;;;;;8.38;2.10;;;24.60;57.50;;;;;;4994854;28;20026;-73
2022/10/01 11:23:52;;;;;;;11.90;2.10;;;24.50;58.50;;;;;;4984517;28;20070;-71
2022/10/01 11:26:39;;;;;;;11.82;2.20;;;24.50;59.50;;;;;;4975233;28;20102;-69
2022/10/01 11:29:34;;;;;;;12.32;2.33;;;24.50;60.00;;;;;;4975246;28;20059;-70
2022/10/01 11:32:18;;;;;;;14.30;3.05;;;24.50;61.00;;;;;;4948652;28;20041;-68
2022/10/01 11:35:05;;;;;;;11.57;1.98;;;24.50;60.70;;;;;;4974813;28;20061;-69
2022/10/01 11:37:37;;;;;;;11.65;2.20;;;24.60;60.60;;;;;;4974997;28;20132;-71
2022/10/01 11:40:17;;;;;;;11.30;1.95;;;24.90;60.30;;;;;;4975080;28;20031;-69
2022/10/01 11:42:45;;;;;;;7.65;2.05;;;25.10;59.90;;;;;;4974751;28;20408;-74
2022/10/01 11:45:30;;;;;;;7.10;2.63;;;25.20;58.50;;;;;;4974752;28;20030;-69
2022/10/01 11:48:16;;;;;;;7.45;1.80;;;25.30;58.50;;;;;;4974481;28;20178;-70
2022/10/01 11:50:47;;;;;;;10.35;2.20;;;25.20;57.00;;;;;;4974417;28;20029;-69
2022/10/01 11:53:37;;;;;;;8.02;1.88;;;25.20;57.30;;;;;;4957280;28;20030;-71
2022/10/01 11:59:23;;;;;;;7.80;1.40;;;25.00;56.80;;;;;;4974769;28;20511;-69
2022/10/01 12:01:56;;;;;;;11.60;1.80;;;25.00;56.10;;;;;;4974339;28;20105;-71
2022/10/01 12:04:40;;;;;;;8.82;2.28;;;24.90;55.70;;;;;;4976680;28;20480;-69
2022/10/01 12:07:19;;;;;;;9.38;1.58;;;24.70;56.40;;;;;;4974096;28;20026;-68
2022/10/01 12:09:53;;;;;;;9.13;1.55;;;24.50;55.70;;;;;;4976319;28;20058;-71
2022/10/01 12:12:47;;;;;;;8.10;2.00;;;24.40;56.20;;;;;;4974156;28;20050;-72
2022/10/01 12:15:27;;;;;;;8.32;1.50;;;24.20;57.10;;;;;;4974001;28;20118;-69
2022/10/01 12:18:07;;;;;;;12.32;2.40;;;24.10;55.40;;;;;;4973545;28;20037;-69
2022/10/01 12:20:42;;;;;;;9.73;2.63;;;24.10;56.90;;;;;;4973708;28;20081;-69
2022/10/01 12:23:14;;;;;;;8.70;2.40;;;24.10;58.20;;;;;;4973724;28;20031;-70
2022/10/01 12:26:27;;;;;;;8.18;1.95;;;24.10;59.10;;;;;;4973945;28;20027;-70
2022/10/01 12:29:18;;;;;;;13.20;2.53;;;24.20;58.90;;;;;;4933664;29;20032;-69
2022/10/01 12:31:57;;;;;;;10.18;2.03;;;24.30;58.70;;;;;;4966488;28;20042;-69
2022/10/01 12:34:54;;;;;;;12.23;1.95;;;24.40;59.10;;;;;;4974039;28;20031;-70
2022/10/01 12:37:56;;;;;;;8.15;2.08;;;24.40;59.00;;;;;;4974163;28;20034;-69
2022/10/01 12:40:46;;;;;;;8.02;1.80;;;24.40;58.90;;;;;;4973960;28;20326;-71
2022/10/01 12:43:49;;;;;;;8.13;1.83;;;24.40;58.70;;;;;;4973144;28;20392;-71
2022/10/01 12:46:15;;;;;;;14.45;2.28;;;24.30;58.30;;;;;;4973907;28;20027;-71
2022/10/01 12:48:40;;;;;;;11.43;2.22;;;24.30;58.50;;;;;;4974256;28;20031;-71
2022/10/01 12:51:27;;;;;;;10.52;1.77;;;24.40;59.10;;;;;;4973827;28;20105;-71
2022/10/01 12:54:21;;;;;;;14.73;3.00;;;24.40;59.10;;;;;;4974097;28;20034;-71
2022/10/01 12:56:51;;;;;;;;;;;24.50;58.60;;;;;;4974065;28;20484;-69
2022/10/01 12:59:32;;;;;;;10.43;1.90;;;24.50;57.90;;;;;;4974015;28;20374;-70
2022/10/01 13:02:26;;;;;;;15.73;2.20;;;24.40;58.90;;;;;;4973581;28;20368;-70
2022/10/01 13:04:57;;;;;;;13.75;2.25;;;24.40;59.30;;;;;;4974073;28;20035;-72
2022/10/01 13:07:49;;;;;;;10.10;1.83;;;24.40;59.80;;;;;;4974076;28;20377;-73
2022/10/01 13:10:26;;;;;;;12.13;2.30;;;24.30;59.30;;;;;;4955261;28;20062;-73
2022/10/01 13:13:16;;;;;;;11.25;2.97;;;24.10;61.60;;;;;;4973842;28;20073;-75